sensor_id;sensor_type;location;lat;lon;timestamp;P1;durP1;ratioP1;P2;durP2;ratioP2
73454;SDS011;61690;51.824;6.306;2022-12-07T00:03:32;10.30;;;5.83;;
73454;SDS011;61690;51.824;6.306;2022-12-07T00:05:58;9.73;;;5.30;;
73454;SDS011;61690;51.824;6.306;2022-12-07T00:08:24;8.52;;;5.10;;
73454;SDS011;61690;51.824;6.306;2022-12-07T00:10:49;9.87;;;5.40;;
73454;SDS011;61690;51.824;6.306;2022-12-07T00:13:15;8.63;;;4.97;;
73454;SDS011;61690;51.824;6.306;2022-12-07T00:15:40;8.70;;;5.23;;
73454;SDS011;61690;51.824;6.306;2022-12-07T00:18:05;9.35;;;4.72;;
73454;SDS011;61690;51.824;6.306;2022-12-07T00:20:31;8.67;;;4.80;;
73454;SDS011;61690;51.824;6.306;2022-12-07T00:22:56;9.37;;;5.20;;
73454;SDS011;61690;51.824;6.306;2022-12-07T00:25:22;9.40;;;5.27;;
73454;SDS011;61690;51.824;6.306;2022-12-07T00:27:47;9.43;;;4.93;;
73454;SDS011;61690;51.824;6.306;2022-12-07T00:30:12;8.85;;;5.00;;
73454;SDS011;61690;51.824;6.306;2022-12-07T00:32:38;9.80;;;4.63;;
73454;SDS011;61690;51.824;6.306;2022-12-07T00:35:03;8.33;;;4.60;;
73454;SDS011;61690;51.824;6.306;2022-12-07T00:37:29;8.30;;;4.77;;
73454;SDS011;61690;51.824;6.306;2022-12-07T00:39:54;8.00;;;4.40;;
73454;SDS011;61690;51.824;6.306;2022-12-07T00:42:19;8.70;;;4.57;;
73454;SDS011;61690;51.824;6.306;2022-12-07T00:44:45;8.37;;;4.43;;
73454;SDS011;61690;51.824;6.306;2022-12-07T00:47:10;8.10;;;4.20;;
73454;SDS011;61690;51.824;6.306;2022-12-07T00:49:35;7.97;;;4.70;;
73454;SDS011;61690;51.824;6.306;2022-12-07T00:52:01;8.10;;;4.30;;
73454;SDS011;61690;51.824;6.306;2022-12-07T00:54:26;7.87;;;4.27;;
73454;SDS011;61690;51.824;6.306;2022-12-07T00:56:51;8.30;;;4.47;;
73454;SDS011;61690;51.824;6.306;2022-12-07T00:59:16;9.53;;;4.43;;
73454;SDS011;61690;51.824;6.306;2022-12-07T01:01:42;7.70;;;4.00;;
73454;SDS011;61690;51.824;6.306;2022-12-07T01:04:07;7.67;;;4.00;;
73454;SDS011;61690;51.824;6.306;2022-12-07T01:06:33;7.77;;;3.93;;
73454;SDS011;61690;51.824;6.306;2022-12-07T01:08:58;7.87;;;3.90;;
73454;SDS011;61690;51.824;6.306;2022-12-07T01:11:25;7.55;;;4.05;;
73454;SDS011;61690;51.824;6.306;2022-12-07T01:13:53;8.13;;;4.38;;
73454;SDS011;61690;51.824;6.306;2022-12-07T01:16:20;8.13;;;4.03;;
73454;SDS011;61690;51.824;6.306;2022-12-07T01:18:48;8.45;;;3.95;;
73454;SDS011;61690;51.824;6.306;2022-12-07T01:21:16;8.35;;;4.05;;
73454;SDS011;61690;51.824;6.306;2022-12-07T01:23:43;7.43;;;3.97;;
73454;SDS011;61690;51.824;6.306;2022-12-07T01:26:12;7.73;;;3.63;;
73454;SDS011;61690;51.824;6.306;2022-12-07T01:28:39;6.57;;;3.50;;
73454;SDS011;61690;51.824;6.306;2022-12-07T01:31:09;8.27;;;3.83;;
73454;SDS011;61690;51.824;6.306;2022-12-07T01:33:40;7.33;;;3.90;;
73454;SDS011;61690;51.824;6.306;2022-12-07T01:36:17;7.78;;;3.80;;
73454;SDS011;61690;51.824;6.306;2022-12-07T01:38:46;7.47;;;4.07;;
73454;SDS011;61690;51.824;6.306;2022-12-07T01:41:17;7.53;;;3.58;;
73454;SDS011;61690;51.824;6.306;2022-12-07T01:46:49;6.70;;;3.60;;
73454;SDS011;61690;51.824;6.306;2022-12-07T01:52:17;6.72;;;3.30;;
73454;SDS011;61690;51.824;6.306;2022-12-07T01:54:49;7.05;;;3.33;;
73454;SDS011;61690;51.824;6.306;2022-12-07T01:57:17;6.85;;;3.30;;
73454;SDS011;61690;51.824;6.306;2022-12-07T01:59:44;6.33;;;3.47;;
73454;SDS011;61690;51.824;6.306;2022-12-07T02:02:15;7.20;;;3.70;;
73454;SDS011;61690;51.824;6.306;2022-12-07T02:04:44;6.65;;;3.40;;
73454;SDS011;61690;51.824;6.306;2022-12-07T02:07:10;6.60;;;3.05;;
73454;SDS011;61690;51.824;6.306;2022-12-07T02:09:36;6.73;;;3.23;;
73454;SDS011;61690;51.824;6.306;2022-12-07T02:12:01;6.77;;;3.03;;
73454;SDS011;61690;51.824;6.306;2022-12-07T02:14:27;6.75;;;3.22;;
73454;SDS011;61690;51.824;6.306;2022-12-07T02:19:39;6.60;;;3.05;;
73454;SDS011;61690;51.824;6.306;2022-12-07T02:22:28;6.55;;;2.80;;
73454;SDS011;61690;51.824;6.306;2022-12-07T02:30:44;6.38;;;3.03;;
73454;SDS011;61690;51.824;6.306;2022-12-07T02:33:14;5.78;;;2.60;;
73454;SDS011;61690;51.824;6.306;2022-12-07T02:35:42;6.53;;;2.55;;
73454;SDS011;61690;51.824;6.306;2022-12-07T02:38:18;7.50;;;3.43;;
73454;SDS011;61690;51.824;6.306;2022-12-07T02:40:51;5.47;;;2.83;;
73454;SDS011;61690;51.824;6.306;2022-12-07T02:43:20;6.07;;;3.20;;
73454;SDS011;61690;51.824;6.306;2022-12-07T02:45:50;5.85;;;2.60;;
73454;SDS011;61690;51.824;6.306;2022-12-07T02:48:18;6.28;;;2.30;;
73454;SDS011;61690;51.824;6.306;2022-12-07T02:50:47;5.97;;;2.50;;
73454;SDS011;61690;51.824;6.306;2022-12-07T02:56:03;5.20;;;2.50;;
73454;SDS011;61690;51.824;6.306;2022-12-07T03:01:31;5.65;;;2.47;;
73454;SDS011;61690;51.824;6.306;2022-12-07T03:04:31;6.57;;;2.90;;
73454;SDS011;61690;51.824;6.306;2022-12-07T03:10:48;5.25;;;2.60;;
73454;SDS011;61690;51.824;6.306;2022-12-07T03:13:25;4.80;;;2.15;;
73454;SDS011;61690;51.824;6.306;2022-12-07T03:18:46;5.60;;;2.30;;
73454;SDS011;61690;51.824;6.306;2022-12-07T03:21:17;5.38;;;2.13;;
73454;SDS011;61690;51.824;6.306;2022-12-07T03:23:46;6.20;;;2.50;;
73454;SDS011;61690;51.824;6.306;2022-12-07T03:26:15;5.25;;;2.40;;
73454;SDS011;61690;51.824;6.306;2022-12-07T03:28:45;5.78;;;2.50;;
73454;SDS011;61690;51.824;6.306;2022-12-07T03:31:19;5.60;;;2.40;;
73454;SDS011;61690;51.824;6.306;2022-12-07T03:34:10;5.32;;;2.30;;
73454;SDS011;61690;51.824;6.306;2022-12-07T03:36:55;5.07;;;2.20;;
73454;SDS011;61690;51.824;6.306;2022-12-07T03:39:37;5.30;;;1.95;;
73454;SDS011;61690;51.824;6.306;2022-12-07T03:42:21;5.80;;;2.22;;
73454;SDS011;61690;51.824;6.306;2022-12-07T03:44:46;4.93;;;2.27;;
73454;SDS011;61690;51.824;6.306;2022-12-07T03:49:50;4.80;;;1.95;;
73454;SDS011;61690;51.824;6.306;2022-12-07T03:55:14;5.05;;;1.85;;
73454;SDS011;61690;51.824;6.306;2022-12-07T03:57:47;5.32;;;2.40;;
73454;SDS011;61690;51.824;6.306;2022-12-07T04:00:17;4.88;;;2.10;;
73454;SDS011;61690;51.824;6.306;2022-12-07T04:02:43;5.30;;;1.98;;
73454;SDS011;61690;51.824;6.306;2022-12-07T04:05:08;5.73;;;2.33;;
73454;SDS011;61690;51.824;6.306;2022-12-07T04:07:34;5.13;;;1.90;;
73454;SDS011;61690;51.824;6.306;2022-12-07T04:09:59;5.20;;;2.10;;
73454;SDS011;61690;51.824;6.306;2022-12-07T04:12:25;5.17;;;2.30;;
73454;SDS011;61690;51.824;6.306;2022-12-07T04:14:50;4.90;;;2.23;;
73454;SDS011;61690;51.824;6.306;2022-12-07T04:17:15;5.60;;;2.40;;
73454;SDS011;61690;51.824;6.306;2022-12-07T04:19:41;5.30;;;2.10;;
73454;SDS011;61690;51.824;6.306;2022-12-07T04:22:06;5.20;;;1.93;;
73454;SDS011;61690;51.824;6.306;2022-12-07T04:24:32;4.68;;;2.00;;
73454;SDS011;61690;51.824;6.306;2022-12-07T04:26:57;4.67;;;1.93;;
73454;SDS011;61690;51.824;6.306;2022-12-07T04:29:23;4.45;;;1.80;;
73454;SDS011;61690;51.824;6.306;2022-12-07T04:31:50;4.73;;;1.90;;
73454;SDS011;61690;51.824;6.306;2022-12-07T04:34:16;5.28;;;1.83;;
73454;SDS011;61690;51.824;6.306;2022-12-07T04:36:42;4.97;;;1.83;;
73454;SDS011;61690;51.824;6.306;2022-12-07T04:39:09;4.73;;;1.90;;
73454;SDS011;61690;51.824;6.306;2022-12-07T04:41:43;5.10;;;2.00;;
73454;SDS011;61690;51.824;6.306;2022-12-07T04:44:13;4.77;;;1.90;;
73454;SDS011;61690;51.824;6.306;2022-12-07T04:46:39;5.70;;;1.80;;
73454;SDS011;61690;51.824;6.306;2022-12-07T04:49:05;4.70;;;1.83;;
73454;SDS011;61690;51.824;6.306;2022-12-07T04:51:30;4.50;;;1.70;;
73454;SDS011;61690;51.824;6.306;2022-12-07T04:53:55;4.50;;;1.60;;
73454;SDS011;61690;51.824;6.306;2022-12-07T04:56:21;4.93;;;2.03;;
73454;SDS011;61690;51.824;6.306;2022-12-07T04:58:48;4.93;;;2.00;;
73454;SDS011;61690;51.824;6.306;2022-12-07T05:01:14;4.63;;;1.67;;
73454;SDS011;61690;51.824;6.306;2022-12-07T05:03:41;4.95;;;1.88;;
73454;SDS011;61690;51.824;6.306;2022-12-07T05:06:07;4.67;;;2.07;;
73454;SDS011;61690;51.824;6.306;2022-12-07T05:08:33;4.32;;;1.52;;
73454;SDS011;61690;51.824;6.306;2022-12-07T05:11:00;4.40;;;1.70;;
73454;SDS011;61690;51.824;6.306;2022-12-07T05:13:25;4.78;;;2.00;;
73454;SDS011;61690;51.824;6.306;2022-12-07T05:15:50;4.43;;;1.70;;
73454;SDS011;61690;51.824;6.306;2022-12-07T05:18:16;4.53;;;1.73;;
73454;SDS011;61690;51.824;6.306;2022-12-07T05:20:41;4.77;;;1.80;;
73454;SDS011;61690;51.824;6.306;2022-12-07T05:23:07;4.28;;;1.70;;
73454;SDS011;61690;51.824;6.306;2022-12-07T05:25:33;4.23;;;1.80;;
73454;SDS011;61690;51.824;6.306;2022-12-07T05:27:58;4.80;;;2.00;;
73454;SDS011;61690;51.824;6.306;2022-12-07T05:30:24;5.03;;;1.73;;
73454;SDS011;61690;51.824;6.306;2022-12-07T05:32:50;4.30;;;1.57;;
73454;SDS011;61690;51.824;6.306;2022-12-07T05:35:28;4.50;;;1.65;;
73454;SDS011;61690;51.824;6.306;2022-12-07T05:37:54;4.37;;;1.50;;
73454;SDS011;61690;51.824;6.306;2022-12-07T05:40:20;4.93;;;1.70;;
73454;SDS011;61690;51.824;6.306;2022-12-07T05:42:46;4.72;;;1.67;;
73454;SDS011;61690;51.824;6.306;2022-12-07T05:45:11;4.30;;;1.53;;
73454;SDS011;61690;51.824;6.306;2022-12-07T05:47:37;4.23;;;1.53;;
73454;SDS011;61690;51.824;6.306;2022-12-07T05:50:03;4.40;;;1.45;;
73454;SDS011;61690;51.824;6.306;2022-12-07T05:52:30;4.10;;;1.60;;
73454;SDS011;61690;51.824;6.306;2022-12-07T05:54:55;4.65;;;1.88;;
73454;SDS011;61690;51.824;6.306;2022-12-07T05:57:20;4.47;;;1.80;;
73454;SDS011;61690;51.824;6.306;2022-12-07T05:59:45;4.10;;;1.60;;
73454;SDS011;61690;51.824;6.306;2022-12-07T06:02:12;4.30;;;1.53;;
73454;SDS011;61690;51.824;6.306;2022-12-07T06:04:42;3.92;;;1.70;;
73454;SDS011;61690;51.824;6.306;2022-12-07T06:07:10;4.10;;;1.70;;
73454;SDS011;61690;51.824;6.306;2022-12-07T06:09:37;4.25;;;1.80;;
73454;SDS011;61690;51.824;6.306;2022-12-07T06:12:02;4.93;;;1.80;;
73454;SDS011;61690;51.824;6.306;2022-12-07T06:14:47;4.28;;;1.45;;
73454;SDS011;61690;51.824;6.306;2022-12-07T06:17:12;4.10;;;1.60;;
73454;SDS011;61690;51.824;6.306;2022-12-07T06:19:38;4.83;;;1.70;;
73454;SDS011;61690;51.824;6.306;2022-12-07T06:22:04;4.07;;;1.60;;
73454;SDS011;61690;51.824;6.306;2022-12-07T06:24:33;4.03;;;1.47;;
73454;SDS011;61690;51.824;6.306;2022-12-07T06:27:01;4.72;;;1.50;;
73454;SDS011;61690;51.824;6.306;2022-12-07T06:29:27;4.93;;;1.70;;
73454;SDS011;61690;51.824;6.306;2022-12-07T06:31:52;4.30;;;1.70;;
73454;SDS011;61690;51.824;6.306;2022-12-07T06:34:18;4.23;;;1.50;;
73454;SDS011;61690;51.824;6.306;2022-12-07T06:36:45;4.35;;;1.60;;
73454;SDS011;61690;51.824;6.306;2022-12-07T06:39:16;4.90;;;2.00;;
73454;SDS011;61690;51.824;6.306;2022-12-07T06:41:41;4.43;;;1.70;;
73454;SDS011;61690;51.824;6.306;2022-12-07T06:44:06;4.60;;;1.70;;
73454;SDS011;61690;51.824;6.306;2022-12-07T06:46:32;4.88;;;1.90;;
73454;SDS011;61690;51.824;6.306;2022-12-07T06:48:58;4.43;;;1.40;;
73454;SDS011;61690;51.824;6.306;2022-12-07T06:51:23;4.40;;;1.80;;
73454;SDS011;61690;51.824;6.306;2022-12-07T06:53:48;4.90;;;1.90;;
73454;SDS011;61690;51.824;6.306;2022-12-07T06:56:14;4.05;;;1.40;;
73454;SDS011;61690;51.824;6.306;2022-12-07T06:58:39;4.50;;;1.60;;
73454;SDS011;61690;51.824;6.306;2022-12-07T07:01:11;4.30;;;1.50;;
73454;SDS011;61690;51.824;6.306;2022-12-07T07:03:39;3.92;;;1.38;;
73454;SDS011;61690;51.824;6.306;2022-12-07T07:06:05;4.53;;;1.58;;
73454;SDS011;61690;51.824;6.306;2022-12-07T07:08:31;4.93;;;1.85;;
73454;SDS011;61690;51.824;6.306;2022-12-07T07:10:56;4.70;;;1.50;;
73454;SDS011;61690;51.824;6.306;2022-12-07T07:13:21;4.17;;;1.70;;
73454;SDS011;61690;51.824;6.306;2022-12-07T07:15:47;4.27;;;1.80;;
73454;SDS011;61690;51.824;6.306;2022-12-07T07:18:12;3.80;;;1.40;;
73454;SDS011;61690;51.824;6.306;2022-12-07T07:20:38;4.77;;;1.53;;
73454;SDS011;61690;51.824;6.306;2022-12-07T07:23:03;3.97;;;1.60;;
73454;SDS011;61690;51.824;6.306;2022-12-07T07:25:29;4.60;;;1.27;;
73454;SDS011;61690;51.824;6.306;2022-12-07T07:27:54;4.40;;;1.38;;
73454;SDS011;61690;51.824;6.306;2022-12-07T07:30:20;4.73;;;1.40;;
73454;SDS011;61690;51.824;6.306;2022-12-07T07:32:46;4.88;;;2.17;;
73454;SDS011;61690;51.824;6.306;2022-12-07T07:35:11;4.57;;;1.80;;
73454;SDS011;61690;51.824;6.306;2022-12-07T07:37:38;4.50;;;1.40;;
73454;SDS011;61690;51.824;6.306;2022-12-07T07:40:04;5.32;;;1.60;;
73454;SDS011;61690;51.824;6.306;2022-12-07T07:42:30;4.57;;;1.60;;
73454;SDS011;61690;51.824;6.306;2022-12-07T07:44:55;4.53;;;1.50;;
73454;SDS011;61690;51.824;6.306;2022-12-07T07:47:20;4.20;;;1.70;;
73454;SDS011;61690;51.824;6.306;2022-12-07T07:49:46;4.30;;;1.33;;
73454;SDS011;61690;51.824;6.306;2022-12-07T07:52:11;4.33;;;1.43;;
73454;SDS011;61690;51.824;6.306;2022-12-07T07:54:36;4.80;;;1.87;;
73454;SDS011;61690;51.824;6.306;2022-12-07T07:57:02;4.40;;;1.33;;
73454;SDS011;61690;51.824;6.306;2022-12-07T07:59:27;3.93;;;1.40;;
73454;SDS011;61690;51.824;6.306;2022-12-07T08:01:52;4.07;;;1.60;;
73454;SDS011;61690;51.824;6.306;2022-12-07T08:04:17;4.47;;;1.40;;
73454;SDS011;61690;51.824;6.306;2022-12-07T08:06:43;4.05;;;1.15;;
73454;SDS011;61690;51.824;6.306;2022-12-07T08:09:08;3.97;;;1.50;;
73454;SDS011;61690;51.824;6.306;2022-12-07T08:11:34;3.87;;;1.53;;
73454;SDS011;61690;51.824;6.306;2022-12-07T08:14:01;4.35;;;1.65;;
73454;SDS011;61690;51.824;6.306;2022-12-07T08:16:26;4.10;;;1.57;;
73454;SDS011;61690;51.824;6.306;2022-12-07T08:18:51;4.07;;;1.40;;
73454;SDS011;61690;51.824;6.306;2022-12-07T08:21:17;4.73;;;1.60;;
73454;SDS011;61690;51.824;6.306;2022-12-07T08:23:42;4.13;;;1.55;;
73454;SDS011;61690;51.824;6.306;2022-12-07T08:26:12;4.33;;;1.60;;
73454;SDS011;61690;51.824;6.306;2022-12-07T08:28:38;4.45;;;1.35;;
73454;SDS011;61690;51.824;6.306;2022-12-07T08:31:08;3.90;;;1.10;;
73454;SDS011;61690;51.824;6.306;2022-12-07T08:33:37;5.07;;;1.70;;
73454;SDS011;61690;51.824;6.306;2022-12-07T08:36:06;4.10;;;1.07;;
73454;SDS011;61690;51.824;6.306;2022-12-07T08:38:34;4.73;;;1.70;;
73454;SDS011;61690;51.824;6.306;2022-12-07T08:41:00;4.72;;;1.40;;
73454;SDS011;61690;51.824;6.306;2022-12-07T08:43:26;4.43;;;1.50;;
73454;SDS011;61690;51.824;6.306;2022-12-07T08:46:11;4.77;;;1.57;;
73454;SDS011;61690;51.824;6.306;2022-12-07T08:48:44;4.75;;;1.60;;
73454;SDS011;61690;51.824;6.306;2022-12-07T08:51:17;4.60;;;1.33;;
73454;SDS011;61690;51.824;6.306;2022-12-07T08:53:43;4.20;;;1.35;;
73454;SDS011;61690;51.824;6.306;2022-12-07T08:56:09;4.07;;;1.17;;
73454;SDS011;61690;51.824;6.306;2022-12-07T08:58:35;3.80;;;1.00;;
73454;SDS011;61690;51.824;6.306;2022-12-07T09:01:02;4.20;;;1.20;;
73454;SDS011;61690;51.824;6.306;2022-12-07T09:03:28;3.58;;;1.08;;
73454;SDS011;61690;51.824;6.306;2022-12-07T09:05:53;4.13;;;1.50;;
73454;SDS011;61690;51.824;6.306;2022-12-07T09:08:19;3.80;;;1.30;;
73454;SDS011;61690;51.824;6.306;2022-12-07T09:10:45;4.10;;;1.10;;
73454;SDS011;61690;51.824;6.306;2022-12-07T09:13:11;3.92;;;1.35;;
73454;SDS011;61690;51.824;6.306;2022-12-07T09:15:36;3.80;;;1.20;;
73454;SDS011;61690;51.824;6.306;2022-12-07T09:18:01;4.27;;;1.10;;
73454;SDS011;61690;51.824;6.306;2022-12-07T09:20:27;4.40;;;1.43;;
73454;SDS011;61690;51.824;6.306;2022-12-07T09:22:52;3.90;;;1.20;;
73454;SDS011;61690;51.824;6.306;2022-12-07T09:25:17;4.20;;;1.30;;
73454;SDS011;61690;51.824;6.306;2022-12-07T09:27:43;3.83;;;1.10;;
73454;SDS011;61690;51.824;6.306;2022-12-07T09:30:08;4.23;;;1.40;;
73454;SDS011;61690;51.824;6.306;2022-12-07T09:32:33;3.40;;;1.00;;
73454;SDS011;61690;51.824;6.306;2022-12-07T09:34:59;4.30;;;1.40;;
73454;SDS011;61690;51.824;6.306;2022-12-07T09:37:24;4.07;;;1.40;;
73454;SDS011;61690;51.824;6.306;2022-12-07T09:39:49;4.57;;;1.60;;
73454;SDS011;61690;51.824;6.306;2022-12-07T09:42:37;4.80;;;1.40;;
73454;SDS011;61690;51.824;6.306;2022-12-07T09:45:05;3.90;;;1.30;;
73454;SDS011;61690;51.824;6.306;2022-12-07T09:47:32;3.70;;;1.30;;
73454;SDS011;61690;51.824;6.306;2022-12-07T09:50:00;4.30;;;1.40;;
73454;SDS011;61690;51.824;6.306;2022-12-07T09:52:30;3.83;;;1.30;;
73454;SDS011;61690;51.824;6.306;2022-12-07T09:54:56;3.77;;;1.00;;
73454;SDS011;61690;51.824;6.306;2022-12-07T09:57:29;4.15;;;1.10;;
73454;SDS011;61690;51.824;6.306;2022-12-07T09:59:56;3.70;;;1.13;;
73454;SDS011;61690;51.824;6.306;2022-12-07T10:05:07;3.85;;;1.15;;
73454;SDS011;61690;51.824;6.306;2022-12-07T10:07:37;3.70;;;1.35;;
73454;SDS011;61690;51.824;6.306;2022-12-07T10:10:03;4.20;;;1.40;;
73454;SDS011;61690;51.824;6.306;2022-12-07T10:12:32;3.70;;;1.40;;
73454;SDS011;61690;51.824;6.306;2022-12-07T10:15:20;4.10;;;1.38;;
73454;SDS011;61690;51.824;6.306;2022-12-07T10:17:49;3.90;;;1.40;;
73454;SDS011;61690;51.824;6.306;2022-12-07T10:20:18;3.60;;;1.08;;
73454;SDS011;61690;51.824;6.306;2022-12-07T10:25:21;3.93;;;1.10;;
73454;SDS011;61690;51.824;6.306;2022-12-07T10:27:57;3.88;;;1.15;;
73454;SDS011;61690;51.824;6.306;2022-12-07T10:30:23;4.03;;;1.30;;
73454;SDS011;61690;51.824;6.306;2022-12-07T10:32:48;3.50;;;1.00;;
73454;SDS011;61690;51.824;6.306;2022-12-07T10:37:50;4.20;;;1.10;;
73454;SDS011;61690;51.824;6.306;2022-12-07T10:40:28;4.03;;;1.10;;
73454;SDS011;61690;51.824;6.306;2022-12-07T10:43:03;3.90;;;1.25;;
73454;SDS011;61690;51.824;6.306;2022-12-07T10:45:30;4.53;;;1.30;;
73454;SDS011;61690;51.824;6.306;2022-12-07T10:47:59;4.10;;;1.30;;
73454;SDS011;61690;51.824;6.306;2022-12-07T10:51:08;4.05;;;1.10;;
73454;SDS011;61690;51.824;6.306;2022-12-07T11:01:41;3.50;;;1.00;;
73454;SDS011;61690;51.824;6.306;2022-12-07T11:06:58;4.00;;;1.20;;
73454;SDS011;61690;51.824;6.306;2022-12-07T11:12:37;4.25;;;1.30;;
73454;SDS011;61690;51.824;6.306;2022-12-07T11:15:13;3.80;;;1.10;;
73454;SDS011;61690;51.824;6.306;2022-12-07T11:31:12;4.28;;;1.00;;
73454;SDS011;61690;51.824;6.306;2022-12-07T11:33:44;3.50;;;0.98;;
73454;SDS011;61690;51.824;6.306;2022-12-07T11:39:03;4.05;;;1.20;;
73454;SDS011;61690;51.824;6.306;2022-12-07T11:41:35;3.80;;;0.90;;
73454;SDS011;61690;51.824;6.306;2022-12-07T11:44:12;4.70;;;0.90;;
73454;SDS011;61690;51.824;6.306;2022-12-07T11:46:43;3.72;;;0.80;;
73454;SDS011;61690;51.824;6.306;2022-12-07T11:55:42;3.37;;;0.80;;
73454;SDS011;61690;51.824;6.306;2022-12-07T12:06:36;4.00;;;1.15;;
73454;SDS011;61690;51.824;6.306;2022-12-07T12:09:15;4.20;;;1.00;;
73454;SDS011;61690;51.824;6.306;2022-12-07T12:14:45;3.50;;;1.08;;
73454;SDS011;61690;51.824;6.306;2022-12-07T12:22:21;3.67;;;1.10;;
73454;SDS011;61690;51.824;6.306;2022-12-07T12:24:52;3.70;;;0.90;;
73454;SDS011;61690;51.824;6.306;2022-12-07T12:27:30;3.35;;;0.90;;
73454;SDS011;61690;51.824;6.306;2022-12-07T12:29:59;3.58;;;0.98;;
73454;SDS011;61690;51.824;6.306;2022-12-07T12:32:39;3.53;;;1.00;;
73454;SDS011;61690;51.824;6.306;2022-12-07T12:35:27;3.53;;;1.07;;
73454;SDS011;61690;51.824;6.306;2022-12-07T12:38:20;3.67;;;0.73;;
73454;SDS011;61690;51.824;6.306;2022-12-07T12:40:52;3.72;;;0.90;;
73454;SDS011;61690;51.824;6.306;2022-12-07T12:51:39;4.00;;;0.90;;
73454;SDS011;61690;51.824;6.306;2022-12-07T12:59:35;3.35;;;0.73;;
73454;SDS011;61690;51.824;6.306;2022-12-07T13:04:56;3.88;;;0.90;;
73454;SDS011;61690;51.824;6.306;2022-12-07T13:16:35;3.87;;;1.10;;
73454;SDS011;61690;51.824;6.306;2022-12-07T13:23:38;3.30;;;0.77;;
73454;SDS011;61690;51.824;6.306;2022-12-07T13:29:17;3.57;;;1.10;;
73454;SDS011;61690;51.824;6.306;2022-12-07T13:31:51;4.05;;;0.93;;
73454;SDS011;61690;51.824;6.306;2022-12-07T13:34:32;3.50;;;0.90;;
73454;SDS011;61690;51.824;6.306;2022-12-07T13:37:47;3.40;;;0.90;;
73454;SDS011;61690;51.824;6.306;2022-12-07T13:42:41;3.47;;;0.90;;
73454;SDS011;61690;51.824;6.306;2022-12-07T13:45:23;3.40;;;1.10;;
73454;SDS011;61690;51.824;6.306;2022-12-07T13:48:13;3.50;;;1.00;;
73454;SDS011;61690;51.824;6.306;2022-12-07T13:51:00;3.63;;;1.10;;
73454;SDS011;61690;51.824;6.306;2022-12-07T13:53:27;3.15;;;0.77;;
73454;SDS011;61690;51.824;6.306;2022-12-07T13:55:58;3.53;;;1.00;;
73454;SDS011;61690;51.824;6.306;2022-12-07T13:58:26;3.28;;;1.00;;
73454;SDS011;61690;51.824;6.306;2022-12-07T14:00:54;2.75;;;0.60;;
73454;SDS011;61690;51.824;6.306;2022-12-07T14:03:23;3.20;;;0.80;;
73454;SDS011;61690;51.824;6.306;2022-12-07T14:06:03;3.13;;;0.80;;
73454;SDS011;61690;51.824;6.306;2022-12-07T14:08:30;2.97;;;0.80;;
73454;SDS011;61690;51.824;6.306;2022-12-07T14:10:56;3.20;;;1.07;;
73454;SDS011;61690;51.824;6.306;2022-12-07T14:16:05;3.28;;;0.75;;
73454;SDS011;61690;51.824;6.306;2022-12-07T14:18:53;3.08;;;0.60;;
73454;SDS011;61690;51.824;6.306;2022-12-07T14:21:22;3.10;;;0.80;;
73454;SDS011;61690;51.824;6.306;2022-12-07T14:26:37;3.40;;;0.90;;
73454;SDS011;61690;51.824;6.306;2022-12-07T14:29:20;3.20;;;0.70;;
73454;SDS011;61690;51.824;6.306;2022-12-07T14:31:54;2.88;;;0.80;;
73454;SDS011;61690;51.824;6.306;2022-12-07T14:34:20;3.45;;;1.00;;
73454;SDS011;61690;51.824;6.306;2022-12-07T14:36:46;3.60;;;1.00;;
73454;SDS011;61690;51.824;6.306;2022-12-07T14:39:11;3.63;;;0.80;;
73454;SDS011;61690;51.824;6.306;2022-12-07T14:41:37;3.90;;;1.00;;
73454;SDS011;61690;51.824;6.306;2022-12-07T14:44:18;4.32;;;0.80;;
73454;SDS011;61690;51.824;6.306;2022-12-07T14:46:47;2.90;;;0.60;;
73454;SDS011;61690;51.824;6.306;2022-12-07T14:49:13;3.30;;;0.60;;
73454;SDS011;61690;51.824;6.306;2022-12-07T14:51:39;3.47;;;0.90;;
73454;SDS011;61690;51.824;6.306;2022-12-07T14:54:06;3.17;;;0.70;;
73454;SDS011;61690;51.824;6.306;2022-12-07T14:56:39;3.33;;;0.90;;
73454;SDS011;61690;51.824;6.306;2022-12-07T14:59:04;3.63;;;0.80;;
73454;SDS011;61690;51.824;6.306;2022-12-07T15:01:29;3.53;;;0.90;;
73454;SDS011;61690;51.824;6.306;2022-12-07T15:03:54;4.40;;;0.97;;
73454;SDS011;61690;51.824;6.306;2022-12-07T15:06:20;4.10;;;0.87;;
73454;SDS011;61690;51.824;6.306;2022-12-07T15:08:45;4.47;;;1.00;;
73454;SDS011;61690;51.824;6.306;2022-12-07T15:11:12;4.97;;;1.10;;
73454;SDS011;61690;51.824;6.306;2022-12-07T15:13:41;5.38;;;0.98;;
73454;SDS011;61690;51.824;6.306;2022-12-07T15:16:25;4.15;;;0.70;;
73454;SDS011;61690;51.824;6.306;2022-12-07T15:18:50;3.90;;;0.70;;
73454;SDS011;61690;51.824;6.306;2022-12-07T15:21:16;6.05;;;0.98;;
73454;SDS011;61690;51.824;6.306;2022-12-07T15:23:42;4.70;;;0.90;;
73454;SDS011;61690;51.824;6.306;2022-12-07T15:26:09;4.23;;;1.10;;
73454;SDS011;61690;51.824;6.306;2022-12-07T15:28:35;4.00;;;0.60;;
73454;SDS011;61690;51.824;6.306;2022-12-07T15:31:01;3.85;;;0.80;;
73454;SDS011;61690;51.824;6.306;2022-12-07T15:33:26;3.57;;;0.80;;
73454;SDS011;61690;51.824;6.306;2022-12-07T15:35:51;4.80;;;0.90;;
73454;SDS011;61690;51.824;6.306;2022-12-07T15:38:17;5.43;;;0.90;;
73454;SDS011;61690;51.824;6.306;2022-12-07T15:40:42;3.77;;;0.77;;
73454;SDS011;61690;51.824;6.306;2022-12-07T15:43:08;4.40;;;1.00;;
73454;SDS011;61690;51.824;6.306;2022-12-07T15:45:54;3.58;;;0.60;;
73454;SDS011;61690;51.824;6.306;2022-12-07T15:48:20;4.70;;;1.00;;
73454;SDS011;61690;51.824;6.306;2022-12-07T15:50:45;3.30;;;0.63;;
73454;SDS011;61690;51.824;6.306;2022-12-07T15:53:10;3.53;;;0.75;;
73454;SDS011;61690;51.824;6.306;2022-12-07T15:55:38;4.57;;;0.90;;
73454;SDS011;61690;51.824;6.306;2022-12-07T15:58:04;2.87;;;0.53;;
73454;SDS011;61690;51.824;6.306;2022-12-07T16:00:29;4.15;;;0.70;;
73454;SDS011;61690;51.824;6.306;2022-12-07T16:02:54;4.60;;;0.70;;
73454;SDS011;61690;51.824;6.306;2022-12-07T16:05:19;3.53;;;0.90;;
73454;SDS011;61690;51.824;6.306;2022-12-07T16:07:45;3.43;;;0.80;;
73454;SDS011;61690;51.824;6.306;2022-12-07T16:10:12;6.05;;;1.40;;
73454;SDS011;61690;51.824;6.306;2022-12-07T16:12:37;3.20;;;0.90;;
73454;SDS011;61690;51.824;6.306;2022-12-07T16:15:02;4.83;;;0.70;;
73454;SDS011;61690;51.824;6.306;2022-12-07T16:17:28;4.90;;;0.70;;
73454;SDS011;61690;51.824;6.306;2022-12-07T16:19:53;5.03;;;0.90;;
73454;SDS011;61690;51.824;6.306;2022-12-07T16:22:18;3.88;;;0.90;;
73454;SDS011;61690;51.824;6.306;2022-12-07T16:24:44;4.20;;;0.87;;
73454;SDS011;61690;51.824;6.306;2022-12-07T16:27:09;3.87;;;0.80;;
73454;SDS011;61690;51.824;6.306;2022-12-07T16:29:34;3.03;;;0.70;;
73454;SDS011;61690;51.824;6.306;2022-12-07T16:32:00;3.30;;;0.80;;
73454;SDS011;61690;51.824;6.306;2022-12-07T16:34:25;3.27;;;0.53;;
73454;SDS011;61690;51.824;6.306;2022-12-07T16:36:50;3.20;;;0.80;;
73454;SDS011;61690;51.824;6.306;2022-12-07T16:39:16;4.50;;;1.00;;
73454;SDS011;61690;51.824;6.306;2022-12-07T16:41:43;3.65;;;0.80;;
73454;SDS011;61690;51.824;6.306;2022-12-07T16:44:09;4.70;;;0.90;;
73454;SDS011;61690;51.824;6.306;2022-12-07T16:46:37;4.20;;;0.90;;
73454;SDS011;61690;51.824;6.306;2022-12-07T16:49:03;4.28;;;1.10;;
73454;SDS011;61690;51.824;6.306;2022-12-07T16:51:29;4.75;;;1.00;;
73454;SDS011;61690;51.824;6.306;2022-12-07T16:53:54;4.00;;;0.60;;
73454;SDS011;61690;51.824;6.306;2022-12-07T16:56:20;3.57;;;0.70;;
73454;SDS011;61690;51.824;6.306;2022-12-07T16:58:46;4.07;;;0.85;;
73454;SDS011;61690;51.824;6.306;2022-12-07T17:01:17;2.95;;;0.60;;
73454;SDS011;61690;51.824;6.306;2022-12-07T17:03:44;3.83;;;0.53;;
73454;SDS011;61690;51.824;6.306;2022-12-07T17:06:13;2.90;;;0.55;;
73454;SDS011;61690;51.824;6.306;2022-12-07T17:08:43;4.53;;;0.60;;
73454;SDS011;61690;51.824;6.306;2022-12-07T17:11:18;4.93;;;0.77;;
73454;SDS011;61690;51.824;6.306;2022-12-07T17:13:46;2.60;;;0.50;;